Time;durP1;ratioP1;P1;durP2;ratioP2;P2;SDS_P1;SDS_P2;PMS_P1;PMS_P2;Temp;Humidity;BMP_temperature;BMP_pressure;BME280_temperature;BME280_humidity;BME280_pressure;Samples;Min_cycle;Max_cycle;Signal;HPM_P1;HPM_P2
2022/10/31 00:01:19;;;;;;;4.50;3.75;;;;;;;14.59;50.92;95382.34;5136805;27;20218;-73
2022/10/31 00:03:47;;;;;;;5.22;3.92;;;;;;;14.53;51.66;95379.09;5136015;27;20206;-73
2022/10/31 00:06:14;;;;;;;4.15;3.47;;;;;;;14.49;51.69;95377.38;5136288;27;20612;-74
2022/10/31 00:08:41;;;;;;;4.95;3.75;;;;;;;14.41;52.01;95377.25;5135842;27;20195;-74
2022/10/31 00:11:11;;;;;;;4.57;3.65;;;;;;;14.35;52.18;95387.06;5135976;27;20198;-74
2022/10/31 00:13:38;;;;;;;4.13;3.72;;;;;;;14.30;52.72;95378.25;5136189;27;20201;-72
2022/10/31 00:16:06;;;;;;;4.72;3.63;;;;;;;14.21;53.37;95384.84;5135838;27;20206;-72
2022/10/31 00:18:32;;;;;;;4.57;3.67;;;;;;;14.13;53.35;95385.09;5135796;27;20202;-72
2022/10/31 00:21:00;;;;;;;5.90;4.57;;;;;;;14.07;53.75;95381.81;5135638;27;20230;-73
2022/10/31 00:23:27;;;;;;;4.97;3.72;;;;;;;14.08;53.46;95380.63;5135677;27;20232;-72
2022/10/31 00:25:54;;;;;;;4.07;3.67;;;;;;;14.16;52.86;95385.16;5136413;27;20607;-74
2022/10/31 00:28:22;;;;;;;4.75;3.33;;;;;;;14.25;52.36;95373.00;5136702;27;20188;-73
2022/10/31 00:30:49;;;;;;;5.20;3.45;;;;;;;14.30;52.10;95373.50;5135444;27;20195;-73
2022/10/31 00:33:16;;;;;;;5.75;3.83;;;;;;;14.36;52.07;95376.78;5135737;27;20575;-73
2022/10/31 00:35:42;;;;;;;4.47;3.28;;;;;;;14.40;51.96;95359.00;5135710;27;20199;-73
2022/10/31 00:38:09;;;;;;;4.68;3.70;;;;;;;14.43;51.55;95368.56;5136459;27;20238;-73
2022/10/31 00:40:36;;;;;;;4.32;3.45;;;;;;;14.46;51.46;95367.84;5136372;27;20633;-72
2022/10/31 00:43:03;;;;;;;3.53;3.13;;;;;;;14.47;51.25;95365.88;5135649;27;20210;-72
2022/10/31 00:45:32;;;;;;;3.90;3.40;;;;;;;14.47;51.22;95365.88;5119277;27;20218;-73
2022/10/31 00:47:59;;;;;;;3.60;3.13;;;;;;;14.50;51.27;95359.59;5135327;27;20191;-72
2022/10/31 00:50:26;;;;;;;5.38;3.58;;;;;;;14.48;51.19;95367.47;5135227;27;20526;-72
2022/10/31 00:52:53;;;;;;;4.50;3.45;;;;;;;14.49;51.19;95360.72;5136008;27;20171;-72
2022/10/31 00:55:19;;;;;;;4.28;3.30;;;;;;;14.48;51.12;95359.94;5135454;27;20187;-72
2022/10/31 00:57:47;;;;;;;4.53;3.53;;;;;;;14.49;51.28;95360.72;5136450;27;20202;-72
2022/10/31 01:00:15;;;;;;;4.15;3.50;;;;;;;14.49;51.05;95361.56;5135397;27;20194;-72
2022/10/31 01:02:43;;;;;;;4.65;3.30;;;;;;;14.51;51.32;95358.41;5134707;27;20222;-72
2022/10/31 01:05:09;;;;;;;3.72;3.40;;;;;;;14.51;51.41;95364.78;5136286;28;20187;-73
2022/10/31 01:07:37;;;;;;;4.38;3.38;;;;;;;14.51;51.35;95367.53;5135603;28;20205;-72
2022/10/31 01:10:04;;;;;;;4.45;3.58;;;;;;;14.49;51.33;95367.09;5135166;28;20195;-72
2022/10/31 01:12:31;;;;;;;3.80;3.47;;;;;;;14.50;51.24;95365.94;5135048;28;20205;-72
2022/10/31 01:14:58;;;;;;;3.50;3.20;;;;;;;14.51;51.25;95369.53;5134346;28;20211;-71
2022/10/31 01:17:25;;;;;;;3.83;3.42;;;;;;;14.52;51.45;95373.91;5136203;28;20179;-72
2022/10/31 01:19:53;;;;;;;4.25;3.35;;;;;;;14.51;51.52;95377.84;5135421;28;20206;-72
2022/10/31 01:22:19;;;;;;;5.80;3.78;;;;;;;14.51;51.79;95373.09;5135291;28;20214;-72
2022/10/31 01:24:46;;;;;;;5.30;3.75;;;;;;;14.51;51.45;95380.63;5135857;27;20194;-72
2022/10/31 01:27:13;;;;;;;4.75;3.80;;;;;;;14.51;51.75;95375.88;5139611;27;20198;-72
2022/10/31 01:29:41;;;;;;;4.30;3.90;;;;;;;14.51;52.09;95375.88;5140209;27;20183;-72
2022/10/31 01:32:07;;;;;;;5.35;4.47;;;;;;;14.52;52.03;95374.69;5139303;27;20191;-72
2022/10/31 01:34:34;;;;;;;6.25;4.18;;;;;;;14.53;52.15;95368.00;5140105;27;20191;-72
2022/10/31 01:37:03;;;;;;;5.63;4.28;;;;;;;14.56;52.17;95375.59;5140069;27;20202;-72
2022/10/31 01:39:29;;;;;;;5.03;4.45;;;;;;;14.55;52.36;95370.38;5139185;27;20233;-72
2022/10/31 01:41:56;;;;;;;4.85;4.28;;;;;;;14.57;52.34;95381.94;5139337;27;20216;-72
2022/10/31 01:44:55;;;;;;;4.85;4.35;;;;;;;14.58;52.70;95377.97;5140088;27;20179;-72
2022/10/31 01:47:28;;;;;;;4.35;3.95;;;;;;;14.59;52.43;95382.34;5139927;27;20191;-72
2022/10/31 01:49:57;;;;;;;6.18;4.22;;;;;;;14.60;52.61;95378.41;5138962;27;20199;-72
2022/10/31 01:52:28;;;;;;;5.93;4.20;;;;;;;14.61;52.54;95386.34;5139939;27;20180;-72
2022/10/31 01:55:00;;;;;;;5.85;4.55;;;;;;;14.64;52.52;95382.06;5138750;27;20183;-72
2022/10/31 01:57:27;;;;;;;5.05;4.38;;;;;;;14.64;52.49;95384.81;5139641;27;20198;-72
2022/10/31 01:59:57;;;;;;;4.93;4.30;;;;;;;14.65;52.36;95386.41;5138910;27;20208;-72
2022/10/31 02:02:24;;;;;;;6.18;4.35;;;;;;;14.64;52.50;95384.81;5139244;27;20214;-72
2022/10/31 02:04:51;;;;;;;4.95;4.22;;;;;;;14.64;52.68;95382.84;5138595;27;20211;-72
2022/10/31 02:07:22;;;;;;;5.20;4.45;;;;;;;14.64;52.85;95382.06;5139237;27;20259;-72
2022/10/31 02:09:52;;;;;;;5.15;4.65;;;;;;;14.64;52.96;95377.28;5139440;27;20222;-72
2022/10/31 02:12:20;;;;;;;5.75;4.70;;;;;;;14.63;52.97;95381.25;5138691;27;20202;-72
2022/10/31 02:14:47;;;;;;;5.53;4.13;;;;;;;14.62;53.15;95376.06;5139304;27;20194;-72
2022/10/31 02:17:14;;;;;;;6.22;4.60;;;;;;;14.60;52.86;95365.34;5139309;27;20183;-72
2022/10/31 02:19:46;;;;;;;4.80;4.05;;;;;;;14.61;52.93;95368.91;5138798;27;20318;-72
2022/10/31 02:22:19;;;;;;;5.72;4.57;;;;;;;14.60;53.03;95370.09;5138821;27;20640;-72
2022/10/31 02:25:12;;;;;;;5.35;4.68;;;;;;;14.59;53.20;95380.38;5138263;27;20211;-72
2022/10/31 02:27:52;;;;;;;4.90;4.40;;;;;;;14.57;53.32;95382.72;5138470;27;20268;-73
2022/10/31 02:30:19;;;;;;;6.15;4.65;;;;;;;14.57;53.64;95393.03;5138180;27;20198;-72
2022/10/31 02:33:02;;;;;;;6.30;4.97;;;;;;;14.55;53.46;95385.06;5138022;27;20191;-72
2022/10/31 02:35:42;;;;;;;5.55;4.25;;;;;;;14.56;53.89;95394.19;5139043;27;20195;-72
2022/10/31 02:38:19;;;;;;;7.53;4.70;;;;;;;14.56;54.01;95391.41;5138004;27;20242;-72
2022/10/31 02:40:51;;;;;;;7.53;4.88;;;;;;;14.57;54.09;95393.03;5137577;27;20213;-72
2022/10/31 02:43:21;;;;;;;5.03;4.32;;;;;;;14.56;53.98;95400.56;5138157;27;20218;-72
2022/10/31 02:45:51;;;;;;;6.40;4.70;;;;;;;14.55;54.22;95401.72;5137895;27;20195;-72
2022/10/31 02:48:21;;;;;;;7.32;4.68;;;;;;;14.53;53.91;95403.28;5137851;27;20638;-72
2022/10/31 02:50:53;;;;;;;7.00;5.05;;;;;;;14.51;54.13;95400.84;5139298;27;20194;-72
2022/10/31 02:53:20;;;;;;;5.57;4.60;;;;;;;14.50;54.13;95404.81;5138610;27;20190;-71
2022/10/31 02:55:59;;;;;;;6.18;5.53;;;;;;;14.48;54.46;95404.34;5138275;27;20503;-71
2022/10/31 02:58:28;;;;;;;7.70;5.00;;;;;;;14.48;54.62;95406.31;5137940;27;20209;-71
2022/10/31 03:01:21;;;;;;;5.65;5.03;;;;;;;14.45;54.65;95408.66;5137523;27;20199;-71
2022/10/31 03:03:59;;;;;;;6.05;5.22;;;;;;;14.44;54.85;95411.78;5118858;27;20199;-72
2022/10/31 03:06:31;;;;;;;5.63;5.07;;;;;;;14.43;55.03;95408.22;5138407;27;20189;-72
2022/10/31 03:09:04;;;;;;;6.03;5.05;;;;;;;14.42;55.36;95425.25;5137413;27;20198;-72
2022/10/31 03:11:34;;;;;;;6.22;5.35;;;;;;;14.40;55.19;95420.06;5138359;27;20183;-72
2022/10/31 03:14:06;;;;;;;6.50;5.28;;;;;;;14.40;55.17;95419.25;5137488;27;20187;-72
2022/10/31 03:16:40;;;;;;;5.57;5.07;;;;;;;14.39;55.16;95412.91;5137424;27;20199;-73
2022/10/31 03:19:10;;;;;;;6.43;5.05;;;;;;;14.39;55.54;95417.66;5137829;27;20540;-73
2022/10/31 03:21:41;;;;;;;5.63;4.68;;;;;;;14.38;55.60;95422.41;5137346;27;20187;-72
2022/10/31 03:24:09;;;;;;;6.95;5.20;;;;;;;14.35;55.93;95414.81;5138106;27;20191;-72
2022/10/31 03:26:37;;;;;;;8.65;5.57;;;;;;;14.29;56.87;95413.50;5138116;27;20190;-72
2022/10/31 03:29:06;;;;;;;6.68;5.18;;;;;;;14.21;56.95;95422.88;5136725;27;20195;-72
2022/10/31 03:31:35;;;;;;;7.07;6.38;;;;;;;14.12;57.31;95423.09;5137792;27;20219;-72
2022/10/31 03:34:03;;;;;;;7.85;5.50;;;;;;;14.03;57.85;95425.31;5137842;27;20179;-72
2022/10/31 03:36:32;;;;;;;6.72;5.40;;;;;;;13.94;58.10;95433.03;5136926;27;20195;-72
2022/10/31 03:38:59;;;;;;;6.88;5.45;;;;;;;13.88;58.35;95427.00;5136345;27;20671;-73
2022/10/31 03:41:30;;;;;;;7.10;5.53;;;;;;;13.84;58.58;95431.69;5136499;27;20243;-73
2022/10/31 03:44:00;;;;;;;5.90;5.18;;;;;;;13.84;58.99;95428.09;5136728;27;20199;-72
2022/10/31 03:46:28;;;;;;;6.82;5.82;;;;;;;13.81;59.01;95428.84;5136490;27;20206;-72
2022/10/31 03:48:54;;;;;;;11.52;7.13;;;;;;;13.75;59.11;95435.81;5136311;27;20195;-72
2022/10/31 03:51:24;;;;;;;9.68;7.57;;;;;;;13.67;59.12;95434.88;5136807;27;20235;-72
2022/10/31 03:53:56;;;;;;;8.15;7.35;;;;;;;13.59;59.52;95442.25;5137530;27;20190;-72
2022/10/31 03:56:28;;;;;;;11.50;7.68;;;;;;;13.58;59.62;95448.13;5137136;27;20603;-72
2022/10/31 03:59:01;;;;;;;10.52;7.25;;;;;;;13.53;59.85;95445.66;5136471;27;20537;-72
2022/10/31 04:01:31;;;;;;;10.95;7.03;;;;;;;13.51;59.81;95445.19;5136744;27;20203;-72
2022/10/31 04:03:58;;;;;;;10.18;6.82;;;;;;;13.47;59.97;95454.25;5136988;27;20199;-72
2022/10/31 04:06:26;;;;;;;8.70;7.47;;;;;;;13.44;59.97;95451.41;5137002;27;20249;-72
2022/10/31 04:08:58;;;;;;;10.70;7.45;;;;;;;13.39;60.23;95452.47;5136148;27;20199;-72
2022/10/31 04:11:29;;;;;;;9.60;8.07;;;;;;;13.33;60.42;95448.41;5136686;27;20187;-72
2022/10/31 04:13:56;;;;;;;10.10;7.43;;;;;;;13.24;60.29;95447.78;5136287;27;20206;-72
2022/10/31 04:16:24;;;;;;;9.38;6.95;;;;;;;13.18;60.34;95455.56;5136057;27;20199;-72
2022/10/31 04:18:51;;;;;;;8.88;7.30;;;;;;;13.17;60.77;95450.34;5135617;27;20194;-72
2022/10/31 04:21:17;;;;;;;8.02;6.03;;;;;;;13.18;60.70;95449.19;5135769;27;20179;-72
2022/10/31 04:23:44;;;;;;;8.25;6.78;;;;;;;13.16;60.96;95457.06;5136353;27;20211;-72
2022/10/31 04:26:13;;;;;;;10.13;7.53;;;;;;;13.14;60.80;95445.53;5135655;27;20603;-72
2022/10/31 04:28:39;;;;;;;8.15;6.95;;;;;;;13.14;61.18;95457.41;5135786;27;20187;-72
2022/10/31 04:31:06;;;;;;;9.93;7.38;;;;;;;13.15;61.33;95461.00;5135469;27;20244;-72
2022/10/31 04:33:33;;;;;;;8.73;7.35;;;;;;;13.17;61.46;95461.44;5135497;27;20199;-72
2022/10/31 04:36:00;;;;;;;12.45;7.70;;;;;;;13.19;61.54;95453.59;5135914;27;20203;-72
2022/10/31 04:38:26;;;;;;;9.00;8.10;;;;;;;13.21;61.61;95448.47;5135511;27;20231;-72
2022/10/31 04:40:53;;;;;;;9.88;7.72;;;;;;;13.20;61.18;95452.41;5135326;27;20203;-72
2022/10/31 04:43:21;;;;;;;9.35;7.82;;;;;;;13.18;61.73;95460.25;5135279;27;20219;-72
2022/10/31 04:45:48;;;;;;;13.30;7.65;;;;;;;13.18;61.64;95460.25;5135794;27;20191;-72
2022/10/31 04:48:15;;;;;;;9.38;8.00;;;;;;;13.16;61.25;95460.63;5135380;27;20190;-72
2022/10/31 04:50:42;;;;;;;9.23;7.60;;;;;;;13.17;61.23;95465.00;5135279;27;20187;-72
2022/10/31 04:53:09;;;;;;;11.75;8.13;;;;;;;13.19;61.63;95461.91;5135072;27;20270;-72
2022/10/31 04:55:36;;;;;;;11.93;7.45;;;;;;;13.17;61.58;95467.78;5135185;27;20191;-72
2022/10/31 04:58:03;;;;;;;12.80;7.55;;;;;;;13.18;61.55;95468.56;5135426;27;20202;-73
2022/10/31 05:00:31;;;;;;;13.52;7.65;;;;;;;13.18;61.67;95469.41;5134871;27;20195;-71
2022/10/31 05:02:59;;;;;;;12.52;8.43;;;;;;;13.17;61.72;95473.31;5134952;27;20225;-73
2022/10/31 05:05:27;;;;;;;12.65;8.15;;;;;;;13.11;61.58;95474.78;5135181;28;20202;-72
2022/10/31 05:07:54;;;;;;;10.90;8.32;;;;;;;13.08;61.91;95483.78;5135066;28;20232;-72
2022/10/31 05:10:22;;;;;;;19.10;9.32;;;;;;;13.02;62.05;95474.94;5134941;28;20202;-72
2022/10/31 05:12:50;;;;;;;21.75;11.32;;;;;;;12.98;62.29;95484.34;5135218;28;20195;-72
2022/10/31 05:15:18;;;;;;;14.07;9.45;;;;;;;12.92;62.28;95491.28;5135718;28;20209;-72
2022/10/31 05:17:47;;;;;;;15.45;9.60;;;;;;;12.86;62.41;95488.00;5135513;28;20194;-72
2022/10/31 05:20:14;;;;;;;17.42;9.65;;;;;;;12.81;62.60;95487.44;5136241;28;20202;-72
2022/10/31 05:22:43;;;;;;;18.17;10.35;;;;;;;12.82;62.67;95489.88;5135994;28;20203;-72
2022/10/31 05:25:11;;;;;;;14.88;10.05;;;;;;;12.82;62.61;95492.66;5136121;27;20217;-72
2022/10/31 05:27:40;;;;;;;18.10;10.50;;;;;;;12.82;62.83;95489.88;5134846;28;20195;-72
2022/10/31 05:30:08;;;;;;;14.70;9.43;;;;;;;12.79;62.70;95492.56;5134875;28;20237;-72
2022/10/31 05:32:38;;;;;;;14.63;9.10;;;;;;;12.79;62.69;95498.91;5134363;28;20199;-71
2022/10/31 05:35:08;;;;;;;15.43;8.75;;;;;;;12.73;63.19;95495.56;5135307;28;20203;-72
2022/10/31 05:37:35;;;;;;;14.53;9.67;;;;;;;12.72;63.42;95501.47;5134354;28;20790;-72
2022/10/31 05:40:01;;;;;;;13.82;9.50;;;;;;;12.66;63.58;95511.19;5135720;28;20466;-69
2022/10/31 05:42:28;;;;;;;11.88;9.88;;;;;;;12.59;63.05;95505.47;5135808;28;20191;-69
2022/10/31 05:44:55;;;;;;;12.95;9.38;;;;;;;12.53;63.28;95511.28;5134936;28;20514;-71
2022/10/31 05:47:21;;;;;;;15.13;10.13;;;;;;;12.49;63.55;95515.91;5136259;28;20194;-72
2022/10/31 05:49:48;;;;;;;15.98;9.68;;;;;;;12.47;63.48;95515.44;5135274;28;20583;-71
2022/10/31 05:52:17;;;;;;;16.17;10.20;;;;;;;12.49;63.90;95515.09;5134644;28;20240;-71
2022/10/31 05:54:44;;;;;;;14.30;11.20;;;;;;;12.47;63.78;95506.34;5135898;27;20199;-70
2022/10/31 05:57:11;;;;;;;17.15;11.25;;;;;;;12.49;63.91;95512.31;5135467;28;20217;-69
2022/10/31 05:59:37;;;;;;;16.23;10.68;;;;;;;12.49;64.40;95515.09;5135463;27;20538;-70
2022/10/31 06:02:04;;;;;;;15.35;11.10;;;;;;;12.47;64.47;95522.97;5135122;28;20191;-69
2022/10/31 06:04:31;;;;;;;16.20;11.32;;;;;;;12.50;64.65;95517.53;5134769;28;20215;-69
2022/10/31 06:06:58;;;;;;;16.95;12.10;;;;;;;12.55;64.92;95527.50;5135714;27;20187;-69
2022/10/31 06:09:26;;;;;;;16.48;13.30;;;;;;;12.59;64.80;95530.38;5134896;28;20191;-70
2022/10/31 06:11:53;;;;;;;22.63;14.77;;;;;;;12.62;64.48;95526.91;5138266;27;20251;-69
2022/10/31 06:14:19;;;;;;;23.42;16.92;;;;;;;12.65;64.16;95529.75;5138557;27;20195;-69
2022/10/31 06:16:46;;;;;;;28.90;20.60;;;;;;;12.68;64.39;95531.03;5138164;27;20198;-70
2022/10/31 06:19:13;;;;;;;26.60;21.92;;;;;;;12.74;63.76;95538.72;5138564;27;20195;-70
2022/10/31 06:21:40;;;;;;;31.40;23.92;;;;;;;12.77;63.79;95542.72;5139422;27;20202;-70
2022/10/31 06:24:07;;;;;;;30.38;25.02;;;;;;;12.83;63.42;95544.06;5138311;27;20214;-70
2022/10/31 06:26:35;;;;;;;31.55;28.02;;;;;;;12.90;63.61;95551.75;5138294;27;20199;-70
2022/10/31 06:29:02;;;;;;;38.78;31.38;;;;;;;12.92;63.24;95553.00;5138308;27;20199;-70
2022/10/31 06:31:29;;;;;;;38.67;31.45;;;;;;;12.97;63.17;95560.25;5138211;27;20209;-70
2022/10/31 06:33:55;;;;;;;32.17;26.40;;;;;;;13.01;63.10;95553.63;5139069;27;20183;-70
2022/10/31 06:36:22;;;;;;;29.55;23.48;;;;;;;13.08;63.33;95552.22;5138065;27;20202;-70
2022/10/31 06:38:49;;;;;;;28.40;22.33;;;;;;;13.16;63.52;95556.78;5138510;27;20265;-70
2022/10/31 06:41:16;;;;;;;35.42;30.23;;;;;;;13.24;63.37;95556.59;5137620;27;20195;-70
2022/10/31 06:43:47;;;;;;;31.63;27.98;;;;;;;13.31;62.83;95563.50;5138050;27;20225;-72
2022/10/31 06:46:13;;;;;;;33.53;25.30;;;;;;;13.36;62.28;95568.75;5139172;27;20194;-69
2022/10/31 06:48:41;;;;;;;24.67;22.08;;;;;;;13.41;62.42;95560.19;5138708;27;20198;-70
2022/10/31 06:51:08;;;;;;;25.20;20.13;;;;;;;13.48;62.38;95563.13;5137658;27;20202;-71
2022/10/31 06:53:35;;;;;;;21.42;19.05;;;;;;;13.54;62.66;95569.19;5138413;27;20206;-71
2022/10/31 06:56:02;;;;;;;23.15;19.45;;;;;;;13.60;62.19;95562.22;5137604;27;20202;-71
2022/10/31 06:58:28;;;;;;;21.95;18.80;;;;;;;13.65;61.87;95559.97;5138433;27;20183;-71
2022/10/31 07:00:59;;;;;;;22.45;19.17;;;;;;;13.73;61.85;95560.94;5137663;27;20191;-71
2022/10/31 07:03:26;;;;;;;23.40;19.40;;;;;;;13.83;62.03;95573.41;5137805;27;20223;-71
2022/10/31 07:05:53;;;;;;;21.58;18.48;;;;;;;13.89;61.96;95567.25;5137608;27;20191;-71
2022/10/31 07:08:20;;;;;;;22.02;17.52;;;;;;;13.99;62.16;95567.84;5137099;27;20210;-71
2022/10/31 07:10:52;;;;;;;20.17;17.83;;;;;;;14.07;62.08;95558.50;5138287;27;20191;-71
2022/10/31 07:13:21;;;;;;;18.38;15.77;;;;;;;14.16;62.02;95567.41;5138338;27;20182;-67
2022/10/31 07:15:48;;;;;;;17.42;15.63;;;;;;;14.24;61.84;95568.38;5137308;27;20231;-67
2022/10/31 07:18:16;;;;;;;19.77;15.55;;;;;;;14.30;61.38;95570.50;5137353;27;20199;-67
2022/10/31 07:20:42;;;;;;;18.27;16.40;;;;;;;14.38;61.23;95561.16;5137231;27;20199;-67
2022/10/31 07:23:29;;;;;;;21.23;18.77;;;;;;;14.47;61.30;95557.34;5136333;27;20211;-70
2022/10/31 07:25:57;;;;;;;23.98;21.73;;;;;;;14.54;60.90;95551.97;5137365;27;20202;-70
2022/10/31 07:28:24;;;;;;;20.75;18.65;;;;;;;14.61;60.65;95552.13;5120278;27;20202;-71
2022/10/31 07:30:52;;;;;;;18.60;16.80;;;;;;;14.68;60.31;95546.69;5137981;27;20183;-70
2022/10/31 07:33:20;;;;;;;19.25;16.70;;;;;;;14.74;59.61;95549.97;5137911;27;20606;-70
2022/10/31 07:35:47;;;;;;;19.90;15.45;;;;;;;14.85;60.09;95543.47;5137165;27;20187;-70
2022/10/31 07:38:15;;;;;;;15.30;13.82;;;;;;;14.95;59.74;95546.78;5136970;27;20235;-70
2022/10/31 07:40:43;;;;;;;14.10;11.07;;;;;;;15.05;59.76;95552.53;5136452;27;20222;-70
2022/10/31 07:43:12;;;;;;;12.00;10.80;;;;;;;15.17;59.29;95545.97;5137385;27;20175;-70
2022/10/31 07:45:39;;;;;;;13.05;11.15;;;;;;;15.30;59.51;95546.59;5136394;27;20215;-71
2022/10/31 07:48:06;;;;;;;12.48;10.38;;;;;;;15.43;58.86;95541.63;5137556;27;20175;-71
2022/10/31 07:50:35;;;;;;;12.35;11.10;;;;;;;15.53;58.47;95544.59;5137590;27;20179;-70
2022/10/31 07:53:20;;;;;;;11.50;10.30;;;;;;;15.63;58.47;95543.16;5137319;27;20181;-73
2022/10/31 07:55:47;;;;;;;12.05;10.82;;;;;;;15.72;57.41;95540.94;5137219;27;20206;-74
2022/10/31 07:58:15;;;;;;;11.85;10.35;;;;;;;15.80;57.63;95545.44;5136701;27;20194;-74
2022/10/31 08:00:43;;;;;;;11.85;10.63;;;;;;;15.92;57.81;95541.63;5136137;27;20611;-71
2022/10/31 08:03:11;;;;;;;12.00;10.90;;;;;;;16.05;57.58;95542.19;5136910;27;20530;-71
2022/10/31 08:05:40;;;;;;;11.43;10.27;;;;;;;16.16;57.58;95545.09;5137391;27;20186;-70
2022/10/31 08:08:07;;;;;;;11.52;10.43;;;;;;;16.26;56.82;95536.91;5136173;27;20198;-70
2022/10/31 08:10:34;;;;;;;11.35;10.20;;;;;;;16.35;57.05;95540.22;5136105;27;20294;-70
2022/10/31 08:13:02;;;;;;;11.35;10.25;;;;;;;16.43;56.74;95541.09;5136849;27;20206;-69
2022/10/31 08:15:30;;;;;;;10.40;9.40;;;;;;;16.52;56.55;95540.78;5136424;27;20199;-70
2022/10/31 08:17:56;;;;;;;11.57;10.02;;;;;;;16.60;55.67;95543.28;5135775;27;20622;-70
2022/10/31 08:20:23;;;;;;;10.68;9.60;;;;;;;16.69;55.95;95543.00;5135727;27;20201;-70
2022/10/31 08:22:56;;;;;;;10.32;9.32;;;;;;;16.82;55.14;95551.94;5136492;27;20600;-72
2022/10/31 08:25:23;;;;;;;9.65;8.73;;;;;;;16.89;54.95;95534.50;5135670;27;20222;-72
2022/10/31 08:27:51;;;;;;;9.93;8.93;;;;;;;16.99;54.93;95534.59;5135999;27;20259;-73
2022/10/31 08:30:18;;;;;;;10.32;9.32;;;;;;;17.11;55.47;95544.66;5135974;27;20207;-72
2022/10/31 08:32:45;;;;;;;9.45;8.55;;;;;;;17.20;54.19;95539.56;5136762;27;20225;-69
2022/10/31 08:35:12;;;;;;;9.85;8.85;;;;;;;17.27;54.93;95542.41;5135484;27;20211;-71
2022/10/31 08:37:39;;;;;;;11.02;9.85;;;;;;;17.38;54.98;95542.50;5135402;27;20611;-71
2022/10/31 08:40:08;;;;;;;9.98;8.98;;;;;;;17.50;54.61;95542.22;5135710;27;20235;-71
2022/10/31 08:42:35;;;;;;;10.63;9.40;;;;;;;17.62;54.56;95534.72;5135494;27;20203;-71
2022/10/31 08:45:01;;;;;;;9.75;8.57;;;;;;;17.67;54.09;95545.50;5135675;27;20219;-71
2022/10/31 08:47:28;;;;;;;12.27;9.80;;;;;;;17.73;53.58;95533.63;5135898;27;20190;-71
2022/10/31 08:49:55;;;;;;;10.80;9.32;;;;;;;17.76;53.00;95544.03;5136009;27;20187;-71
2022/10/31 08:52:24;;;;;;;10.40;9.35;;;;;;;17.85;53.35;95538.09;5135773;27;20514;-71
2022/10/31 08:54:50;;;;;;;10.75;9.65;;;;;;;17.93;53.26;95536.94;5135525;27;20195;-71
2022/10/31 08:57:19;;;;;;;11.93;9.73;;;;;;;18.01;53.19;95535.00;5136252;27;20179;-71
2022/10/31 08:59:46;;;;;;;11.52;10.32;;;;;;;18.11;52.77;95533.47;5135624;27;20214;-71
2022/10/31 09:02:12;;;;;;;10.98;9.98;;;;;;;18.25;53.09;95534.34;5135351;27;20194;-71
2022/10/31 09:04:39;;;;;;;12.90;10.10;;;;;;;18.34;52.29;95538.75;5135043;27;20670;-71
2022/10/31 09:07:06;;;;;;;10.63;9.45;;;;;;;18.48;52.33;95538.81;5135179;27;20198;-71
2022/10/31 09:09:32;;;;;;;12.60;9.82;;;;;;;18.60;52.17;95540.50;5135133;27;20187;-71
2022/10/31 09:11:59;;;;;;;12.00;9.07;;;;;;;18.72;52.03;95537.34;5135194;28;20186;-70
2022/10/31 09:14:28;;;;;;;13.95;10.20;;;;;;;18.81;51.58;95536.97;5135464;28;20195;-70
2022/10/31 09:16:55;;;;;;;10.57;9.25;;;;;;;18.89;51.19;95535.81;5135345;28;20190;-71
2022/10/31 09:19:21;;;;;;;8.90;7.97;;;;;;;18.94;51.37;95532.63;5135649;28;20198;-71
2022/10/31 09:21:48;;;;;;;9.95;8.63;;;;;;;18.94;49.84;95527.84;5136259;28;20183;-71
2022/10/31 09:24:15;;;;;;;10.70;9.20;;;;;;;19.02;51.30;95525.84;5134839;28;20231;-71
2022/10/31 09:26:41;;;;;;;9.73;8.82;;;;;;;19.08;51.10;95529.88;5134716;28;20198;-70
2022/10/31 09:29:09;;;;;;;8.65;7.90;;;;;;;19.22;50.57;95529.09;5135548;28;20203;-72
2022/10/31 09:31:37;;;;;;;8.77;7.88;;;;;;;19.38;50.53;95526.69;5136265;28;20198;-71
2022/10/31 09:34:04;;;;;;;10.13;8.73;;;;;;;19.47;50.30;95518.72;5135822;28;20205;-70
2022/10/31 09:36:31;;;;;;;8.85;7.97;;;;;;;19.52;49.67;95525.09;5135331;28;20198;-70
2022/10/31 09:38:58;;;;;;;8.98;8.07;;;;;;;19.61;49.54;95520.72;5134861;28;20230;-70
2022/10/31 09:41:30;;;;;;;9.35;8.45;;;;;;;19.68;48.94;95528.31;5135513;28;20195;-70
2022/10/31 09:44:01;;;;;;;10.73;7.47;;;;;;;19.77;48.31;95516.72;5135340;28;20227;-70
2022/10/31 09:46:35;;;;;;;8.00;7.20;;;;;;;19.84;48.28;95516.72;5137343;27;20195;-71
2022/10/31 09:49:20;;;;;;;8.70;7.60;;;;;;;19.93;47.82;95517.09;5139036;27;20250;-71
2022/10/31 09:51:52;;;;;;;7.45;6.75;;;;;;;19.99;47.65;95517.50;5139079;27;20187;-71
2022/10/31 09:54:21;;;;;;;8.52;7.07;;;;;;;20.11;47.15;95511.44;5138793;27;20538;-71
2022/10/31 09:56:48;;;;;;;7.50;6.80;;;;;;;20.17;47.48;95513.44;5138607;27;20201;-71
2022/10/31 09:59:21;;;;;;;7.13;6.22;;;;;;;20.23;47.21;95513.84;5138767;27;20577;-71
2022/10/31 10:01:51;;;;;;;6.85;5.70;;;;;;;20.31;46.62;95512.59;5138528;27;20202;-71
2022/10/31 10:04:32;;;;;;;7.20;6.03;;;;;;;20.39;47.68;95505.75;5138871;27;20211;-71
2022/10/31 10:06:59;;;;;;;7.40;5.47;;;;;;;20.43;46.44;95505.75;5139535;27;20199;-71
2022/10/31 10:09:27;;;;;;;6.38;4.78;;;;;;;20.44;46.14;95498.94;5138812;27;20198;-71
2022/10/31 10:12:02;;;;;;;6.75;5.30;;;;;;;20.46;45.79;95498.53;5138857;27;20203;-73
2022/10/31 10:14:40;;;;;;;5.57;4.78;;;;;;;20.52;45.17;95492.16;5138638;27;20195;-71
2022/10/31 10:17:23;;;;;;;5.55;3.80;;;;;;;20.55;44.59;95493.31;5138493;27;20663;-72
2022/10/31 10:20:25;;;;;;;5.45;3.80;;;;;;;20.66;44.88;95482.84;5139487;27;20187;-71
2022/10/31 10:22:57;;;;;;;5.38;4.10;;;;;;;20.68;44.85;95492.44;5138408;27;20198;-71
2022/10/31 10:25:24;;;;;;;6.57;4.63;;;;;;;20.65;43.97;95482.03;5138113;27;20567;-70
2022/10/31 10:28:03;;;;;;;4.55;4.13;;;;;;;20.62;43.73;95482.06;5137975;27;20206;-71
2022/10/31 10:30:35;;;;;;;5.05;4.03;;;;;;;20.60;43.87;95471.28;5138177;27;20547;-73
2022/10/31 10:33:06;;;;;;;4.68;4.22;;;;;;;20.65;43.58;95473.63;5137950;27;20202;-71
2022/10/31 10:35:36;;;;;;;4.57;3.88;;;;;;;20.73;43.56;95473.59;5138408;27;20199;-70
2022/10/31 10:38:15;;;;;;;7.10;4.10;;;;;;;20.77;43.58;95466.78;5138706;27;20191;-70
2022/10/31 10:40:42;;;;;;;4.45;4.05;;;;;;;20.85;43.58;95457.13;5138643;27;20175;-71
2022/10/31 10:43:25;;;;;;;5.28;4.00;;;;;;;20.90;43.24;95461.50;5138277;27;20194;-71
2022/10/31 10:48:46;;;;;;;5.32;4.10;;;;;;;21.03;43.29;95445.78;5137811;27;20187;-69
2022/10/31 10:51:22;;;;;;;5.22;3.70;;;;;;;21.04;42.95;95450.19;5138527;27;20256;-71
2022/10/31 10:54:01;;;;;;;5.63;4.10;;;;;;;21.12;42.86;95445.31;5138775;27;20191;-69
2022/10/31 10:56:42;;;;;;;7.40;3.67;;;;;;;21.18;42.74;95442.88;5137589;27;20205;-69
2022/10/31 10:59:12;;;;;;;6.28;4.25;;;;;;;21.17;43.21;95444.88;5136603;27;20613;-69
2022/10/31 11:01:40;;;;;;;6.95;3.67;;;;;;;21.19;42.42;95439.66;5138920;27;20180;-69
2022/10/31 11:04:23;;;;;;;5.63;3.88;;;;;;;21.23;41.97;95439.63;5137748;27;20195;-70
2022/10/31 11:07:03;;;;;;;8.70;4.25;;;;;;;21.26;42.79;95445.19;5137583;27;20203;-72
2022/10/31 11:09:30;;;;;;;4.90;4.25;;;;;;;21.29;42.88;95435.16;5138462;27;20190;-69
2022/10/31 11:11:57;;;;;;;4.90;3.72;;;;;;;21.35;43.02;95437.16;5138445;27;20191;-70
2022/10/31 11:14:25;;;;;;;6.28;3.90;;;;;;;21.35;42.20;95437.16;5137540;27;20206;-68
2022/10/31 11:16:55;;;;;;;7.38;3.90;;;;;;;21.34;41.96;95423.53;5137374;27;20591;-68
2022/10/31 11:19:25;;;;;;;4.57;4.15;;;;;;;21.35;42.30;95423.13;5137904;27;20200;-68
2022/10/31 11:21:52;;;;;;;7.50;4.10;;;;;;;21.40;41.37;95424.69;5137485;27;20202;-68
2022/10/31 11:24:22;;;;;;;5.07;3.70;;;;;;;21.43;42.01;95423.06;5136964;27;20195;-71
2022/10/31 11:26:49;;;;;;;4.47;4.05;;;;;;;21.49;41.79;95422.16;5138265;27;20175;-71
2022/10/31 11:29:21;;;;;;;6.10;4.32;;;;;;;21.55;41.79;95419.72;5138240;27;20209;-71
2022/10/31 11:31:48;;;;;;;5.10;4.00;;;;;;;21.55;41.89;95414.13;5136761;27;20202;-71
2022/10/31 11:34:20;;;;;;;5.78;3.65;;;;;;;21.57;41.93;95414.50;5136760;27;20236;-71
2022/10/31 11:36:47;;;;;;;6.32;3.85;;;;;;;21.57;41.65;95411.69;5137809;27;20180;-67
2022/10/31 11:39:18;;;;;;;7.18;4.07;;;;;;;21.56;41.11;95407.28;5137869;27;20238;-67
2022/10/31 11:41:47;;;;;;;6.07;3.90;;;;;;;21.63;41.82;95410.81;5137912;27;20271;-66